sensor_id;sensor_type;location;lat;lon;timestamp;temperature;humidity
2387;DHT22;49473;50.772;8.768;2023-07-13T00:00:08;15.30;99.90
2387;DHT22;49473;50.772;8.768;2023-07-13T00:02:35;15.40;99.90
2387;DHT22;49473;50.772;8.768;2023-07-13T00:05:02;15.40;99.90
2387;DHT22;49473;50.772;8.768;2023-07-13T00:07:30;15.50;99.90
2387;DHT22;49473;50.772;8.768;2023-07-13T00:09:57;15.50;99.90
2387;DHT22;49473;50.772;8.768;2023-07-13T00:12:27;15.60;99.90
2387;DHT22;49473;50.772;8.768;2023-07-13T00:14:57;15.70;99.90
2387;DHT22;49473;50.772;8.768;2023-07-13T00:17:24;15.70;99.90
2387;DHT22;49473;50.772;8.768;2023-07-13T00:19:51;15.70;99.90
2387;DHT22;49473;50.772;8.768;2023-07-13T00:22:18;15.80;99.90
2387;DHT22;49473;50.772;8.768;2023-07-13T00:24:45;15.80;99.90
2387;DHT22;49473;50.772;8.768;2023-07-13T00:27:12;15.90;99.90
2387;DHT22;49473;50.772;8.768;2023-07-13T00:29:39;15.90;99.90
2387;DHT22;49473;50.772;8.768;2023-07-13T00:32:08;15.90;99.90
2387;DHT22;49473;50.772;8.768;2023-07-13T00:34:37;15.90;99.90
2387;DHT22;49473;50.772;8.768;2023-07-13T00:37:04;15.90;99.90
2387;DHT22;49473;50.772;8.768;2023-07-13T00:39:33;15.90;99.90
2387;DHT22;49473;50.772;8.768;2023-07-13T00:42:00;15.80;99.90
2387;DHT22;49473;50.772;8.768;2023-07-13T00:44:27;15.70;99.90
2387;DHT22;49473;50.772;8.768;2023-07-13T00:46:54;15.60;99.90
2387;DHT22;49473;50.772;8.768;2023-07-13T00:49:27;15.60;99.90
2387;DHT22;49473;50.772;8.768;2023-07-13T00:51:58;15.60;99.90
2387;DHT22;49473;50.772;8.768;2023-07-13T00:54:29;15.50;99.90
2387;DHT22;49473;50.772;8.768;2023-07-13T00:57:00;15.50;99.90
2387;DHT22;49473;50.772;8.768;2023-07-13T00:59:28;15.30;99.90
2387;DHT22;49473;50.772;8.768;2023-07-13T01:01:55;15.10;99.90
2387;DHT22;49473;50.772;8.768;2023-07-13T01:04:25;15.00;99.90
2387;DHT22;49473;50.772;8.768;2023-07-13T01:06:52;15.10;99.90
2387;DHT22;49473;50.772;8.768;2023-07-13T01:09:19;15.10;99.90
2387;DHT22;49473;50.772;8.768;2023-07-13T01:11:47;15.10;99.90
2387;DHT22;49473;50.772;8.768;2023-07-13T01:14:15;15.10;99.90
2387;DHT22;49473;50.772;8.768;2023-07-13T01:16:44;15.10;99.90
2387;DHT22;49473;50.772;8.768;2023-07-13T01:19:21;15.10;99.90
2387;DHT22;49473;50.772;8.768;2023-07-13T01:21:52;15.20;99.90
2387;DHT22;49473;50.772;8.768;2023-07-13T01:24:19;15.20;99.90
2387;DHT22;49473;50.772;8.768;2023-07-13T01:26:46;15.30;99.90
2387;DHT22;49473;50.772;8.768;2023-07-13T01:29:13;15.40;99.90
2387;DHT22;49473;50.772;8.768;2023-07-13T01:31:39;15.40;99.90
2387;DHT22;49473;50.772;8.768;2023-07-13T01:34:06;15.50;99.90
2387;DHT22;49473;50.772;8.768;2023-07-13T01:36:33;15.40;99.90
2387;DHT22;49473;50.772;8.768;2023-07-13T01:39:01;15.20;99.90
2387;DHT22;49473;50.772;8.768;2023-07-13T01:41:28;15.10;99.90
2387;DHT22;49473;50.772;8.768;2023-07-13T01:43:55;15.00;99.90
2387;DHT22;49473;50.772;8.768;2023-07-13T01:46:22;14.80;99.90
2387;DHT22;49473;50.772;8.768;2023-07-13T01:48:49;14.60;99.90
2387;DHT22;49473;50.772;8.768;2023-07-13T01:51:16;14.50;99.90
2387;DHT22;49473;50.772;8.768;2023-07-13T01:53:43;14.40;99.90
2387;DHT22;49473;50.772;8.768;2023-07-13T01:56:11;14.40;99.90
2387;DHT22;49473;50.772;8.768;2023-07-13T01:58:38;14.40;99.90
2387;DHT22;49473;50.772;8.768;2023-07-13T02:01:05;14.30;99.90
2387;DHT22;49473;50.772;8.768;2023-07-13T02:03:31;14.20;99.90
2387;DHT22;49473;50.772;8.768;2023-07-13T02:05:58;14.20;99.90
2387;DHT22;49473;50.772;8.768;2023-07-13T02:08:25;14.00;99.90
2387;DHT22;49473;50.772;8.768;2023-07-13T02:10:51;14.00;99.90
2387;DHT22;49473;50.772;8.768;2023-07-13T02:13:19;14.00;99.90
2387;DHT22;49473;50.772;8.768;2023-07-13T02:15:46;13.80;99.90
2387;DHT22;49473;50.772;8.768;2023-07-13T02:18:16;13.80;99.90
2387;DHT22;49473;50.772;8.768;2023-07-13T02:20:43;13.70;99.90
2387;DHT22;49473;50.772;8.768;2023-07-13T02:23:10;13.60;99.90
2387;DHT22;49473;50.772;8.768;2023-07-13T02:25:37;13.60;99.90
2387;DHT22;49473;50.772;8.768;2023-07-13T02:28:04;13.60;99.90
2387;DHT22;49473;50.772;8.768;2023-07-13T02:30:32;13.50;99.90
2387;DHT22;49473;50.772;8.768;2023-07-13T02:32:59;13.50;99.90
2387;DHT22;49473;50.772;8.768;2023-07-13T02:35:25;13.40;99.90
2387;DHT22;49473;50.772;8.768;2023-07-13T02:37:52;13.30;99.90
2387;DHT22;49473;50.772;8.768;2023-07-13T02:40:19;13.30;99.90
2387;DHT22;49473;50.772;8.768;2023-07-13T02:42:46;13.20;99.90
2387;DHT22;49473;50.772;8.768;2023-07-13T02:45:12;13.20;99.90
2387;DHT22;49473;50.772;8.768;2023-07-13T02:47:41;13.10;99.90
2387;DHT22;49473;50.772;8.768;2023-07-13T02:50:09;13.10;99.90
2387;DHT22;49473;50.772;8.768;2023-07-13T02:52:35;13.20;99.90
2387;DHT22;49473;50.772;8.768;2023-07-13T02:55:02;13.30;99.90
2387;DHT22;49473;50.772;8.768;2023-07-13T02:57:29;13.20;99.90
2387;DHT22;49473;50.772;8.768;2023-07-13T02:59:58;13.30;99.90
2387;DHT22;49473;50.772;8.768;2023-07-13T03:02:25;13.30;99.90
2387;DHT22;49473;50.772;8.768;2023-07-13T03:04:54;13.40;99.90
2387;DHT22;49473;50.772;8.768;2023-07-13T03:07:21;13.40;99.90
2387;DHT22;49473;50.772;8.768;2023-07-13T03:09:48;13.40;99.90
2387;DHT22;49473;50.772;8.768;2023-07-13T03:12:14;13.40;99.90
2387;DHT22;49473;50.772;8.768;2023-07-13T03:14:41;13.30;99.90
2387;DHT22;49473;50.772;8.768;2023-07-13T03:17:08;13.20;99.90
2387;DHT22;49473;50.772;8.768;2023-07-13T03:19:34;13.20;99.90
2387;DHT22;49473;50.772;8.768;2023-07-13T03:22:03;13.30;99.90
2387;DHT22;49473;50.772;8.768;2023-07-13T03:24:31;13.30;99.90
2387;DHT22;49473;50.772;8.768;2023-07-13T03:26:58;13.20;99.90
2387;DHT22;49473;50.772;8.768;2023-07-13T03:29:25;13.20;99.90
2387;DHT22;49473;50.772;8.768;2023-07-13T03:31:51;13.00;99.90
2387;DHT22;49473;50.772;8.768;2023-07-13T03:34:18;13.00;99.90
2387;DHT22;49473;50.772;8.768;2023-07-13T03:36:45;12.80;99.90
2387;DHT22;49473;50.772;8.768;2023-07-13T03:39:13;12.70;99.90
2387;DHT22;49473;50.772;8.768;2023-07-13T03:41:40;12.70;99.90
2387;DHT22;49473;50.772;8.768;2023-07-13T03:44:07;12.60;99.90
2387;DHT22;49473;50.772;8.768;2023-07-13T03:46:33;12.60;99.90
2387;DHT22;49473;50.772;8.768;2023-07-13T03:49:01;12.60;99.90
2387;DHT22;49473;50.772;8.768;2023-07-13T03:51:28;12.60;99.90
2387;DHT22;49473;50.772;8.768;2023-07-13T03:53:55;12.70;99.90
2387;DHT22;49473;50.772;8.768;2023-07-13T03:56:23;12.80;99.90
2387;DHT22;49473;50.772;8.768;2023-07-13T03:58:50;12.80;99.90
2387;DHT22;49473;50.772;8.768;2023-07-13T04:01:19;12.70;99.90
2387;DHT22;49473;50.772;8.768;2023-07-13T04:03:46;12.70;99.90
2387;DHT22;49473;50.772;8.768;2023-07-13T04:06:15;12.60;99.90
2387;DHT22;49473;50.772;8.768;2023-07-13T04:08:47;12.50;99.90
2387;DHT22;49473;50.772;8.768;2023-07-13T04:11:14;12.50;99.90
2387;DHT22;49473;50.772;8.768;2023-07-13T04:13:42;12.50;99.90
2387;DHT22;49473;50.772;8.768;2023-07-13T04:16:09;12.60;99.90
2387;DHT22;49473;50.772;8.768;2023-07-13T04:18:36;12.60;99.90
2387;DHT22;49473;50.772;8.768;2023-07-13T04:21:03;12.70;99.90
2387;DHT22;49473;50.772;8.768;2023-07-13T04:23:29;12.70;99.90
2387;DHT22;49473;50.772;8.768;2023-07-13T04:25:56;12.70;99.90
2387;DHT22;49473;50.772;8.768;2023-07-13T04:28:24;12.80;99.90
2387;DHT22;49473;50.772;8.768;2023-07-13T04:30:53;12.80;99.90
2387;DHT22;49473;50.772;8.768;2023-07-13T04:33:20;12.90;99.90
2387;DHT22;49473;50.772;8.768;2023-07-13T04:35:48;13.00;99.90
2387;DHT22;49473;50.772;8.768;2023-07-13T04:38:14;13.10;99.90
2387;DHT22;49473;50.772;8.768;2023-07-13T04:40:42;13.20;99.90
2387;DHT22;49473;50.772;8.768;2023-07-13T04:43:09;13.30;99.90
2387;DHT22;49473;50.772;8.768;2023-07-13T04:45:36;13.40;99.90
2387;DHT22;49473;50.772;8.768;2023-07-13T04:48:05;13.50;99.90
2387;DHT22;49473;50.772;8.768;2023-07-13T04:50:32;13.70;99.90
2387;DHT22;49473;50.772;8.768;2023-07-13T04:52:58;13.90;99.90
2387;DHT22;49473;50.772;8.768;2023-07-13T04:55:25;13.90;99.90
2387;DHT22;49473;50.772;8.768;2023-07-13T04:57:56;14.10;99.90
2387;DHT22;49473;50.772;8.768;2023-07-13T05:00:24;14.30;99.90
2387;DHT22;49473;50.772;8.768;2023-07-13T05:02:51;14.30;99.90
2387;DHT22;49473;50.772;8.768;2023-07-13T05:05:19;14.40;99.90
2387;DHT22;49473;50.772;8.768;2023-07-13T05:07:46;14.50;99.90
2387;DHT22;49473;50.772;8.768;2023-07-13T05:10:13;14.70;99.90
2387;DHT22;49473;50.772;8.768;2023-07-13T05:12:40;14.90;99.90
2387;DHT22;49473;50.772;8.768;2023-07-13T05:15:07;15.10;99.90
2387;DHT22;49473;50.772;8.768;2023-07-13T05:17:34;15.40;99.90
2387;DHT22;49473;50.772;8.768;2023-07-13T05:20:00;15.70;99.90
2387;DHT22;49473;50.772;8.768;2023-07-13T05:22:30;16.00;99.90
2387;DHT22;49473;50.772;8.768;2023-07-13T05:24:57;16.10;99.90
2387;DHT22;49473;50.772;8.768;2023-07-13T05:27:23;16.20;99.90
2387;DHT22;49473;50.772;8.768;2023-07-13T05:29:50;16.40;99.90
2387;DHT22;49473;50.772;8.768;2023-07-13T05:32:17;16.50;99.90
2387;DHT22;49473;50.772;8.768;2023-07-13T05:34:44;16.70;99.90
2387;DHT22;49473;50.772;8.768;2023-07-13T05:37:11;16.90;99.90
2387;DHT22;49473;50.772;8.768;2023-07-13T05:39:39;17.00;99.90
2387;DHT22;49473;50.772;8.768;2023-07-13T05:42:06;17.40;99.90
2387;DHT22;49473;50.772;8.768;2023-07-13T05:44:33;17.60;99.90
2387;DHT22;49473;50.772;8.768;2023-07-13T05:47:00;17.90;99.90
2387;DHT22;49473;50.772;8.768;2023-07-13T05:49:26;18.00;99.90
2387;DHT22;49473;50.772;8.768;2023-07-13T05:51:53;17.90;99.90
2387;DHT22;49473;50.772;8.768;2023-07-13T05:54:20;18.10;99.90
2387;DHT22;49473;50.772;8.768;2023-07-13T05:56:48;18.30;99.90
2387;DHT22;49473;50.772;8.768;2023-07-13T05:59:15;18.40;99.90
2387;DHT22;49473;50.772;8.768;2023-07-13T06:01:42;18.40;99.90
2387;DHT22;49473;50.772;8.768;2023-07-13T06:04:08;18.50;99.90
2387;DHT22;49473;50.772;8.768;2023-07-13T06:06:35;18.70;99.90
2387;DHT22;49473;50.772;8.768;2023-07-13T06:09:02;18.90;99.90
2387;DHT22;49473;50.772;8.768;2023-07-13T06:11:29;18.90;99.90
2387;DHT22;49473;50.772;8.768;2023-07-13T06:13:57;19.10;99.90
2387;DHT22;49473;50.772;8.768;2023-07-13T06:16:24;19.40;99.90
2387;DHT22;49473;50.772;8.768;2023-07-13T06:18:51;19.80;99.90
2387;DHT22;49473;50.772;8.768;2023-07-13T06:21:19;20.30;99.90
2387;DHT22;49473;50.772;8.768;2023-07-13T06:23:47;20.80;99.90
2387;DHT22;49473;50.772;8.768;2023-07-13T06:26:14;21.10;99.90
2387;DHT22;49473;50.772;8.768;2023-07-13T06:28:41;21.50;99.90
2387;DHT22;49473;50.772;8.768;2023-07-13T06:31:11;21.60;99.90
2387;DHT22;49473;50.772;8.768;2023-07-13T06:33:38;21.80;99.90
2387;DHT22;49473;50.772;8.768;2023-07-13T06:36:06;22.10;99.90
2387;DHT22;49473;50.772;8.768;2023-07-13T06:38:33;22.30;99.90
2387;DHT22;49473;50.772;8.768;2023-07-13T06:41:00;22.40;99.90
2387;DHT22;49473;50.772;8.768;2023-07-13T06:43:27;22.90;99.90
2387;DHT22;49473;50.772;8.768;2023-07-13T06:45:55;23.10;99.90
2387;DHT22;49473;50.772;8.768;2023-07-13T06:48:23;23.20;99.90
2387;DHT22;49473;50.772;8.768;2023-07-13T06:50:51;23.40;99.90
2387;DHT22;49473;50.772;8.768;2023-07-13T06:53:19;23.70;99.90
2387;DHT22;49473;50.772;8.768;2023-07-13T06:55:46;24.20;99.90
2387;DHT22;49473;50.772;8.768;2023-07-13T06:58:17;24.10;99.90
2387;DHT22;49473;50.772;8.768;2023-07-13T07:00:44;24.50;99.90
2387;DHT22;49473;50.772;8.768;2023-07-13T07:03:11;24.50;99.90
2387;DHT22;49473;50.772;8.768;2023-07-13T07:05:39;24.40;99.90
2387;DHT22;49473;50.772;8.768;2023-07-13T07:08:06;24.70;99.90
2387;DHT22;49473;50.772;8.768;2023-07-13T07:10:33;25.10;99.90
2387;DHT22;49473;50.772;8.768;2023-07-13T07:13:01;25.60;99.90
2387;DHT22;49473;50.772;8.768;2023-07-13T07:15:27;25.70;99.90
2387;DHT22;49473;50.772;8.768;2023-07-13T07:17:54;25.80;99.90
2387;DHT22;49473;50.772;8.768;2023-07-13T07:20:21;26.00;99.90
2387;DHT22;49473;50.772;8.768;2023-07-13T07:22:49;26.60;98.50
2387;DHT22;49473;50.772;8.768;2023-07-13T07:25:16;27.00;97.80
2387;DHT22;49473;50.772;8.768;2023-07-13T07:27:43;26.90;95.70
2387;DHT22;49473;50.772;8.768;2023-07-13T07:30:11;27.30;96.20
2387;DHT22;49473;50.772;8.768;2023-07-13T07:32:38;28.00;94.70
2387;DHT22;49473;50.772;8.768;2023-07-13T07:35:05;28.10;94.50
2387;DHT22;49473;50.772;8.768;2023-07-13T07:37:32;27.80;92.30
2387;DHT22;49473;50.772;8.768;2023-07-13T07:40:00;27.50;92.40
2387;DHT22;49473;50.772;8.768;2023-07-13T07:42:27;27.60;93.10
2387;DHT22;49473;50.772;8.768;2023-07-13T07:44:54;28.10;92.00
2387;DHT22;49473;50.772;8.768;2023-07-13T07:47:21;28.10;90.80
2387;DHT22;49473;50.772;8.768;2023-07-13T07:49:48;27.80;91.40
2387;DHT22;49473;50.772;8.768;2023-07-13T07:52:15;27.70;90.70
2387;DHT22;49473;50.772;8.768;2023-07-13T07:54:42;27.90;90.60
2387;DHT22;49473;50.772;8.768;2023-07-13T07:57:10;28.10;92.70
2387;DHT22;49473;50.772;8.768;2023-07-13T07:59:37;28.20;89.80
2387;DHT22;49473;50.772;8.768;2023-07-13T08:02:04;28.80;88.60
2387;DHT22;49473;50.772;8.768;2023-07-13T08:04:31;28.60;86.00
2387;DHT22;49473;50.772;8.768;2023-07-13T08:06:57;28.60;85.80
2387;DHT22;49473;50.772;8.768;2023-07-13T08:09:24;29.20;86.30
2387;DHT22;49473;50.772;8.768;2023-07-13T08:11:51;30.00;85.30
2387;DHT22;49473;50.772;8.768;2023-07-13T08:14:19;29.60;81.10
2387;DHT22;49473;50.772;8.768;2023-07-13T08:16:46;29.80;83.00
2387;DHT22;49473;50.772;8.768;2023-07-13T08:19:13;29.80;81.70
2387;DHT22;49473;50.772;8.768;2023-07-13T08:21:39;29.70;81.20
2387;DHT22;49473;50.772;8.768;2023-07-13T08:24:07;29.50;80.30
2387;DHT22;49473;50.772;8.768;2023-07-13T08:26:34;28.70;79.50
2387;DHT22;49473;50.772;8.768;2023-07-13T08:29:01;28.40;82.10
2387;DHT22;49473;50.772;8.768;2023-07-13T08:31:30;28.90;84.20
2387;DHT22;49473;50.772;8.768;2023-07-13T08:33:56;29.50;81.20
2387;DHT22;49473;50.772;8.768;2023-07-13T08:36:24;29.80;79.80
2387;DHT22;49473;50.772;8.768;2023-07-13T08:38:51;30.00;78.80
2387;DHT22;49473;50.772;8.768;2023-07-13T08:41:18;30.40;77.60
2387;DHT22;49473;50.772;8.768;2023-07-13T08:43:47;31.10;79.20
2387;DHT22;49473;50.772;8.768;2023-07-13T08:46:19;31.70;76.50
2387;DHT22;49473;50.772;8.768;2023-07-13T08:48:51;32.20;70.50
2387;DHT22;49473;50.772;8.768;2023-07-13T08:51:33;32.00;72.50
2387;DHT22;49473;50.772;8.768;2023-07-13T08:54:03;32.10;70.80
2387;DHT22;49473;50.772;8.768;2023-07-13T08:56:32;32.10;71.70
2387;DHT22;49473;50.772;8.768;2023-07-13T08:59:02;32.40;69.80
2387;DHT22;49473;50.772;8.768;2023-07-13T09:01:45;32.20;69.40
2387;DHT22;49473;50.772;8.768;2023-07-13T09:04:18;32.10;68.80
2387;DHT22;49473;50.772;8.768;2023-07-13T09:09:43;32.70;68.40
2387;DHT22;49473;50.772;8.768;2023-07-13T09:12:16;33.20;66.90
2387;DHT22;49473;50.772;8.768;2023-07-13T09:14:47;33.10;66.20
2387;DHT22;49473;50.772;8.768;2023-07-13T09:17:18;33.20;66.20
2387;DHT22;49473;50.772;8.768;2023-07-13T09:19:53;33.80;64.60
2387;DHT22;49473;50.772;8.768;2023-07-13T09:22:22;35.10;62.70
2387;DHT22;49473;50.772;8.768;2023-07-13T09:24:55;35.30;61.50
2387;DHT22;49473;50.772;8.768;2023-07-13T09:27:29;35.30;61.20
2387;DHT22;49473;50.772;8.768;2023-07-13T09:30:02;34.20;60.30
2387;DHT22;49473;50.772;8.768;2023-07-13T09:32:31;34.20;61.20
2387;DHT22;49473;50.772;8.768;2023-07-13T09:35:00;34.00;62.00
2387;DHT22;49473;50.772;8.768;2023-07-13T09:37:30;33.70;59.70
2387;DHT22;49473;50.772;8.768;2023-07-13T09:40:00;32.80;59.80
2387;DHT22;49473;50.772;8.768;2023-07-13T09:42:31;32.80;60.90
2387;DHT22;49473;50.772;8.768;2023-07-13T09:45:00;32.30;61.00
2387;DHT22;49473;50.772;8.768;2023-07-13T09:47:30;32.00;62.10
2387;DHT22;49473;50.772;8.768;2023-07-13T09:50:00;32.70;62.30
2387;DHT22;49473;50.772;8.768;2023-07-13T09:52:27;32.60;61.20
2387;DHT22;49473;50.772;8.768;2023-07-13T09:55:23;32.10;62.10
2387;DHT22;49473;50.772;8.768;2023-07-13T09:57:51;32.50;61.40
2387;DHT22;49473;50.772;8.768;2023-07-13T10:00:22;33.30;59.30
2387;DHT22;49473;50.772;8.768;2023-07-13T10:03:02;32.70;58.20
2387;DHT22;49473;50.772;8.768;2023-07-13T10:05:39;32.40;59.60
2387;DHT22;49473;50.772;8.768;2023-07-13T10:08:09;31.20;59.10
2387;DHT22;49473;50.772;8.768;2023-07-13T10:10:41;30.20;61.00
2387;DHT22;49473;50.772;8.768;2023-07-13T10:13:32;30.00;61.00
2387;DHT22;49473;50.772;8.768;2023-07-13T10:16:00;29.70;62.20
2387;DHT22;49473;50.772;8.768;2023-07-13T10:18:29;30.30;62.70
2387;DHT22;49473;50.772;8.768;2023-07-13T10:21:10;32.00;62.50
2387;DHT22;49473;50.772;8.768;2023-07-13T10:23:39;33.30;59.10
2387;DHT22;49473;50.772;8.768;2023-07-13T10:26:12;33.40;58.80
2387;DHT22;49473;50.772;8.768;2023-07-13T10:28:41;33.10;58.30
2387;DHT22;49473;50.772;8.768;2023-07-13T10:31:12;32.60;58.20
2387;DHT22;49473;50.772;8.768;2023-07-13T10:33:40;32.70;59.30
2387;DHT22;49473;50.772;8.768;2023-07-13T10:36:16;32.50;59.50
2387;DHT22;49473;50.772;8.768;2023-07-13T10:38:43;33.70;58.20
2387;DHT22;49473;50.772;8.768;2023-07-13T10:41:17;34.90;57.90
2387;DHT22;49473;50.772;8.768;2023-07-13T10:43:47;35.80;56.00
2387;DHT22;49473;50.772;8.768;2023-07-13T10:46:19;34.80;55.40
2387;DHT22;49473;50.772;8.768;2023-07-13T10:48:51;33.00;56.70
2387;DHT22;49473;50.772;8.768;2023-07-13T10:51:20;33.30;56.90
2387;DHT22;49473;50.772;8.768;2023-07-13T10:53:48;34.30;57.70
2387;DHT22;49473;50.772;8.768;2023-07-13T10:56:35;35.60;56.20
2387;DHT22;49473;50.772;8.768;2023-07-13T10:59:09;35.10;56.20
2387;DHT22;49473;50.772;8.768;2023-07-13T11:01:46;34.90;54.90
2387;DHT22;49473;50.772;8.768;2023-07-13T11:04:19;33.50;55.20
2387;DHT22;49473;50.772;8.768;2023-07-13T11:06:50;32.20;56.40
2387;DHT22;49473;50.772;8.768;2023-07-13T11:09:31;32.00;57.50
2387;DHT22;49473;50.772;8.768;2023-07-13T11:11:59;33.20;57.10
2387;DHT22;49473;50.772;8.768;2023-07-13T11:14:29;33.50;56.20
2387;DHT22;49473;50.772;8.768;2023-07-13T11:16:56;32.80;56.50
2387;DHT22;49473;50.772;8.768;2023-07-13T11:19:40;31.50;56.60
2387;DHT22;49473;50.772;8.768;2023-07-13T11:22:21;31.30;59.10
2387;DHT22;49473;50.772;8.768;2023-07-13T11:25:00;31.90;57.90
2387;DHT22;49473;50.772;8.768;2023-07-13T11:27:37;31.50;57.20
2387;DHT22;49473;50.772;8.768;2023-07-13T11:30:13;30.50;58.10
2387;DHT22;49473;50.772;8.768;2023-07-13T11:32:44;29.70;59.60
2387;DHT22;49473;50.772;8.768;2023-07-13T11:35:13;29.20;60.80
2387;DHT22;49473;50.772;8.768;2023-07-13T11:37:45;29.10;61.80
2387;DHT22;49473;50.772;8.768;2023-07-13T11:40:13;29.30;62.50
2387;DHT22;49473;50.772;8.768;2023-07-13T11:42:40;30.10;61.00
2387;DHT22;49473;50.772;8.768;2023-07-13T11:45:19;30.80;60.40
2387;DHT22;49473;50.772;8.768;2023-07-13T11:47:49;31.70;58.90
2387;DHT22;49473;50.772;8.768;2023-07-13T11:50:20;31.90;57.90
2387;DHT22;49473;50.772;8.768;2023-07-13T11:52:50;31.80;57.60
2387;DHT22;49473;50.772;8.768;2023-07-13T11:55:20;31.00;58.90
2387;DHT22;49473;50.772;8.768;2023-07-13T11:57:50;29.90;59.80
2387;DHT22;49473;50.772;8.768;2023-07-13T12:00:21;29.10;61.00
2387;DHT22;49473;50.772;8.768;2023-07-13T12:02:50;28.50;62.50
2387;DHT22;49473;50.772;8.768;2023-07-13T12:05:19;27.90;63.90
2387;DHT22;49473;50.772;8.768;2023-07-13T12:07:48;27.50;64.40
2387;DHT22;49473;50.772;8.768;2023-07-13T12:10:19;27.50;65.40
2387;DHT22;49473;50.772;8.768;2023-07-13T12:12:48;27.50;66.90
2387;DHT22;49473;50.772;8.768;2023-07-13T12:15:16;27.30;66.80
2387;DHT22;49473;50.772;8.768;2023-07-13T12:17:43;26.90;67.50
2387;DHT22;49473;50.772;8.768;2023-07-13T12:20:20;26.70;67.30
2387;DHT22;49473;50.772;8.768;2023-07-13T12:22:50;26.90;68.90
2387;DHT22;49473;50.772;8.768;2023-07-13T12:25:18;29.30;65.20
2387;DHT22;49473;50.772;8.768;2023-07-13T12:27:47;30.80;62.50
2387;DHT22;49473;50.772;8.768;2023-07-13T12:30:26;30.90;61.50
2387;DHT22;49473;50.772;8.768;2023-07-13T12:32:59;30.10;61.30
2387;DHT22;49473;50.772;8.768;2023-07-13T12:35:29;29.30;61.60
2387;DHT22;49473;50.772;8.768;2023-07-13T12:37:59;28.70;64.20
2387;DHT22;49473;50.772;8.768;2023-07-13T12:40:32;28.00;65.40
2387;DHT22;49473;50.772;8.768;2023-07-13T12:43:01;27.60;67.50
2387;DHT22;49473;50.772;8.768;2023-07-13T12:45:30;27.20;68.50
2387;DHT22;49473;50.772;8.768;2023-07-13T12:48:02;27.20;68.30
2387;DHT22;49473;50.772;8.768;2023-07-13T12:50:34;27.70;67.40
2387;DHT22;49473;50.772;8.768;2023-07-13T12:53:05;28.00;66.10
2387;DHT22;49473;50.772;8.768;2023-07-13T12:55:41;28.10;67.00
2387;DHT22;49473;50.772;8.768;2023-07-13T12:58:16;27.80;67.40
2387;DHT22;49473;50.772;8.768;2023-07-13T13:00:48;27.60;69.20
2387;DHT22;49473;50.772;8.768;2023-07-13T13:03:22;27.20;68.90
2387;DHT22;49473;50.772;8.768;2023-07-13T13:05:57;27.10;69.40
2387;DHT22;49473;50.772;8.768;2023-07-13T13:08:26;27.10;69.10
2387;DHT22;49473;50.772;8.768;2023-07-13T13:10:53;27.10;68.80
2387;DHT22;49473;50.772;8.768;2023-07-13T13:13:19;27.10;70.60
2387;DHT22;49473;50.772;8.768;2023-07-13T13:15:46;27.00;72.20
2387;DHT22;49473;50.772;8.768;2023-07-13T13:18:17;27.00;70.40
2387;DHT22;49473;50.772;8.768;2023-07-13T13:20:44;26.90;70.10
2387;DHT22;49473;50.772;8.768;2023-07-13T13:23:13;26.70;70.70
2387;DHT22;49473;50.772;8.768;2023-07-13T13:25:44;26.70;70.80
2387;DHT22;49473;50.772;8.768;2023-07-13T13:28:14;26.90;71.90
2387;DHT22;49473;50.772;8.768;2023-07-13T13:30:42;27.00;71.40
2387;DHT22;49473;50.772;8.768;2023-07-13T13:33:10;26.90;71.30
2387;DHT22;49473;50.772;8.768;2023-07-13T13:35:39;26.20;69.90
2387;DHT22;49473;50.772;8.768;2023-07-13T13:38:11;25.70;70.40
2387;DHT22;49473;50.772;8.768;2023-07-13T13:40:40;25.60;71.40
2387;DHT22;49473;50.772;8.768;2023-07-13T13:43:27;25.90;74.00
2387;DHT22;49473;50.772;8.768;2023-07-13T13:45:57;26.20;72.70
2387;DHT22;49473;50.772;8.768;2023-07-13T13:48:30;26.30;74.30
2387;DHT22;49473;50.772;8.768;2023-07-13T13:50:57;26.30;73.50
2387;DHT22;49473;50.772;8.768;2023-07-13T13:53:25;25.70;73.80
2387;DHT22;49473;50.772;8.768;2023-07-13T13:55:52;25.60;77.20
2387;DHT22;49473;50.772;8.768;2023-07-13T13:58:20;25.40;74.40
2387;DHT22;49473;50.772;8.768;2023-07-13T14:00:48;25.20;74.40
2387;DHT22;49473;50.772;8.768;2023-07-13T14:03:17;25.10;73.40
2387;DHT22;49473;50.772;8.768;2023-07-13T14:05:45;25.10;74.80
2387;DHT22;49473;50.772;8.768;2023-07-13T14:08:14;25.10;73.80
2387;DHT22;49473;50.772;8.768;2023-07-13T14:10:41;25.20;75.50
2387;DHT22;49473;50.772;8.768;2023-07-13T14:13:16;25.30;75.30
2387;DHT22;49473;50.772;8.768;2023-07-13T14:15:44;25.30;75.70
2387;DHT22;49473;50.772;8.768;2023-07-13T14:18:12;25.40;76.80
2387;DHT22;49473;50.772;8.768;2023-07-13T14:20:43;25.50;75.20
2387;DHT22;49473;50.772;8.768;2023-07-13T14:23:13;25.70;75.30
2387;DHT22;49473;50.772;8.768;2023-07-13T14:25:40;25.70;75.80
2387;DHT22;49473;50.772;8.768;2023-07-13T14:28:17;25.60;75.20
2387;DHT22;49473;50.772;8.768;2023-07-13T14:30:45;25.60;78.70
2387;DHT22;49473;50.772;8.768;2023-07-13T14:33:14;25.60;77.00
2387;DHT22;49473;50.772;8.768;2023-07-13T14:35:41;25.60;77.10
2387;DHT22;49473;50.772;8.768;2023-07-13T14:38:11;25.50;76.50
2387;DHT22;49473;50.772;8.768;2023-07-13T14:40:39;25.50;76.30
2387;DHT22;49473;50.772;8.768;2023-07-13T14:43:09;25.40;77.20
2387;DHT22;49473;50.772;8.768;2023-07-13T14:45:39;25.40;77.40
2387;DHT22;49473;50.772;8.768;2023-07-13T14:48:16;25.40;77.50
2387;DHT22;49473;50.772;8.768;2023-07-13T14:50:44;25.50;78.50
2387;DHT22;49473;50.772;8.768;2023-07-13T14:53:13;25.50;77.90
2387;DHT22;49473;50.772;8.768;2023-07-13T14:55:40;25.30;75.40
2387;DHT22;49473;50.772;8.768;2023-07-13T14:58:08;25.30;76.00
2387;DHT22;49473;50.772;8.768;2023-07-13T15:00:35;25.40;75.60
2387;DHT22;49473;50.772;8.768;2023-07-13T15:03:03;25.20;75.00
2387;DHT22;49473;50.772;8.768;2023-07-13T15:05:33;25.00;75.00
2387;DHT22;49473;50.772;8.768;2023-07-13T15:08:01;24.90;76.70
2387;DHT22;49473;50.772;8.768;2023-07-13T15:10:31;24.90;76.50
2387;DHT22;49473;50.772;8.768;2023-07-13T15:12:59;24.90;78.60
2387;DHT22;49473;50.772;8.768;2023-07-13T15:15:28;25.00;78.10
2387;DHT22;49473;50.772;8.768;2023-07-13T15:17:55;25.30;77.30
2387;DHT22;49473;50.772;8.768;2023-07-13T15:20:26;25.40;76.90
2387;DHT22;49473;50.772;8.768;2023-07-13T15:22:54;25.40;75.60
2387;DHT22;49473;50.772;8.768;2023-07-13T15:25:23;25.50;75.90
2387;DHT22;49473;50.772;8.768;2023-07-13T15:27:51;25.40;75.00
2387;DHT22;49473;50.772;8.768;2023-07-13T15:30:18;25.30;75.80
2387;DHT22;49473;50.772;8.768;2023-07-13T15:32:45;25.40;76.40
2387;DHT22;49473;50.772;8.768;2023-07-13T15:35:17;25.50;77.30
2387;DHT22;49473;50.772;8.768;2023-07-13T15:37:44;25.60;76.90
2387;DHT22;49473;50.772;8.768;2023-07-13T15:40:14;25.60;75.40
2387;DHT22;49473;50.772;8.768;2023-07-13T15:42:41;25.60;77.50
2387;DHT22;49473;50.772;8.768;2023-07-13T15:45:16;25.60;76.60
2387;DHT22;49473;50.772;8.768;2023-07-13T15:47:45;25.70;76.10
2387;DHT22;49473;50.772;8.768;2023-07-13T15:50:13;25.70;75.60
2387;DHT22;49473;50.772;8.768;2023-07-13T15:52:41;25.60;74.10
2387;DHT22;49473;50.772;8.768;2023-07-13T15:55:10;25.30;76.60
2387;DHT22;49473;50.772;8.768;2023-07-13T15:57:40;25.40;74.60